sensor_id;sensor_type;location;lat;lon;timestamp;P1;durP1;ratioP1;P2;durP2;ratioP2
3667;SDS011;24099;47.102;15.440;2022-08-18T00:00:28;5.40;;;1.23;;
3667;SDS011;24099;47.102;15.440;2022-08-18T00:02:56;0.82;;;0.82;;
3667;SDS011;24099;47.102;15.440;2022-08-18T00:05:31;0.73;;;0.73;;
3667;SDS011;24099;47.102;15.440;2022-08-18T00:07:59;1.55;;;0.93;;
3667;SDS011;24099;47.102;15.440;2022-08-18T00:10:26;0.60;;;0.60;;
3667;SDS011;24099;47.102;15.440;2022-08-18T00:12:54;0.82;;;0.82;;
3667;SDS011;24099;47.102;15.440;2022-08-18T00:15:22;0.80;;;0.80;;
3667;SDS011;24099;47.102;15.440;2022-08-18T00:17:50;0.93;;;0.90;;
3667;SDS011;24099;47.102;15.440;2022-08-18T00:20:19;0.70;;;0.60;;
3667;SDS011;24099;47.102;15.440;2022-08-18T00:22:51;0.73;;;0.73;;
3667;SDS011;24099;47.102;15.440;2022-08-18T00:25:20;0.63;;;0.63;;
3667;SDS011;24099;47.102;15.440;2022-08-18T00:27:48;0.55;;;0.55;;
3667;SDS011;24099;47.102;15.440;2022-08-18T00:30:17;0.60;;;0.60;;
3667;SDS011;24099;47.102;15.440;2022-08-18T00:32:47;0.70;;;0.60;;
3667;SDS011;24099;47.102;15.440;2022-08-18T00:35:19;0.60;;;0.60;;
3667;SDS011;24099;47.102;15.440;2022-08-18T00:37:53;0.40;;;0.40;;
3667;SDS011;24099;47.102;15.440;2022-08-18T00:40:25;2.50;;;1.00;;
3667;SDS011;24099;47.102;15.440;2022-08-18T00:42:56;0.80;;;0.80;;
3667;SDS011;24099;47.102;15.440;2022-08-18T00:45:27;0.88;;;0.88;;
3667;SDS011;24099;47.102;15.440;2022-08-18T00:47:58;0.90;;;0.90;;
3667;SDS011;24099;47.102;15.440;2022-08-18T00:50:26;0.95;;;0.95;;
3667;SDS011;24099;47.102;15.440;2022-08-18T00:53:01;0.75;;;0.75;;
3667;SDS011;24099;47.102;15.440;2022-08-18T00:55:41;1.33;;;0.88;;
3667;SDS011;24099;47.102;15.440;2022-08-18T01:02:20;0.90;;;0.90;;
3667;SDS011;24099;47.102;15.440;2022-08-18T01:04:54;1.13;;;1.05;;
3667;SDS011;24099;47.102;15.440;2022-08-18T01:07:29;1.00;;;0.68;;
3667;SDS011;24099;47.102;15.440;2022-08-18T01:10:03;0.80;;;0.80;;
3667;SDS011;24099;47.102;15.440;2022-08-18T01:12:32;1.15;;;0.70;;
3667;SDS011;24099;47.102;15.440;2022-08-18T01:15:01;4.07;;;0.90;;
3667;SDS011;24099;47.102;15.440;2022-08-18T01:17:29;1.15;;;0.88;;
3667;SDS011;24099;47.102;15.440;2022-08-18T01:20:15;0.70;;;0.70;;
3667;SDS011;24099;47.102;15.440;2022-08-18T01:23:10;1.58;;;1.10;;
3667;SDS011;24099;47.102;15.440;2022-08-18T01:25:42;0.55;;;0.55;;
3667;SDS011;24099;47.102;15.440;2022-08-18T01:28:28;0.90;;;0.70;;
3667;SDS011;24099;47.102;15.440;2022-08-18T01:30:58;1.13;;;1.02;;
3667;SDS011;24099;47.102;15.440;2022-08-18T01:33:28;2.85;;;1.10;;
3667;SDS011;24099;47.102;15.440;2022-08-18T01:35:59;0.52;;;0.52;;
3667;SDS011;24099;47.102;15.440;2022-08-18T01:38:34;0.75;;;0.73;;
3667;SDS011;24099;47.102;15.440;2022-08-18T01:41:02;1.13;;;1.02;;
3667;SDS011;24099;47.102;15.440;2022-08-18T01:43:31;0.60;;;0.60;;
3667;SDS011;24099;47.102;15.440;2022-08-18T01:46:00;1.60;;;0.90;;
3667;SDS011;24099;47.102;15.440;2022-08-18T01:48:28;1.33;;;1.02;;
3667;SDS011;24099;47.102;15.440;2022-08-18T01:50:58;1.02;;;0.80;;
3667;SDS011;24099;47.102;15.440;2022-08-18T01:53:25;0.98;;;0.88;;
3667;SDS011;24099;47.102;15.440;2022-08-18T01:55:54;3.80;;;0.75;;
3667;SDS011;24099;47.102;15.440;2022-08-18T01:58:22;0.77;;;0.77;;
3667;SDS011;24099;47.102;15.440;2022-08-18T02:00:52;0.68;;;0.68;;
3667;SDS011;24099;47.102;15.440;2022-08-18T02:03:22;0.77;;;0.77;;
3667;SDS011;24099;47.102;15.440;2022-08-18T02:05:51;1.23;;;1.13;;
3667;SDS011;24099;47.102;15.440;2022-08-18T02:08:25;1.23;;;1.13;;
3667;SDS011;24099;47.102;15.440;2022-08-18T02:10:55;0.85;;;0.77;;
3667;SDS011;24099;47.102;15.440;2022-08-18T02:13:23;0.82;;;0.82;;
3667;SDS011;24099;47.102;15.440;2022-08-18T02:15:50;1.27;;;1.17;;
3667;SDS011;24099;47.102;15.440;2022-08-18T02:18:20;1.00;;;0.95;;
3667;SDS011;24099;47.102;15.440;2022-08-18T02:20:52;0.70;;;0.70;;
3667;SDS011;24099;47.102;15.440;2022-08-18T02:23:19;0.77;;;0.77;;
3667;SDS011;24099;47.102;15.440;2022-08-18T02:25:47;1.27;;;1.17;;
3667;SDS011;24099;47.102;15.440;2022-08-18T02:28:16;0.60;;;0.60;;
3667;SDS011;24099;47.102;15.440;2022-08-18T02:30:44;0.60;;;0.60;;
3667;SDS011;24099;47.102;15.440;2022-08-18T02:33:12;0.98;;;0.80;;
3667;SDS011;24099;47.102;15.440;2022-08-18T02:35:40;0.88;;;0.88;;
3667;SDS011;24099;47.102;15.440;2022-08-18T02:38:08;1.52;;;0.60;;
3667;SDS011;24099;47.102;15.440;2022-08-18T02:40:35;0.82;;;0.80;;
3667;SDS011;24099;47.102;15.440;2022-08-18T02:43:04;0.90;;;0.90;;
3667;SDS011;24099;47.102;15.440;2022-08-18T02:45:35;0.75;;;0.75;;
3667;SDS011;24099;47.102;15.440;2022-08-18T02:48:04;1.30;;;1.20;;
3667;SDS011;24099;47.102;15.440;2022-08-18T02:50:33;2.22;;;1.30;;
3667;SDS011;24099;47.102;15.440;2022-08-18T02:53:09;0.95;;;0.90;;
3667;SDS011;24099;47.102;15.440;2022-08-18T02:55:38;0.90;;;0.90;;
3667;SDS011;24099;47.102;15.440;2022-08-18T02:58:06;0.95;;;0.93;;
3667;SDS011;24099;47.102;15.440;2022-08-18T03:00:34;1.05;;;1.00;;
3667;SDS011;24099;47.102;15.440;2022-08-18T03:03:02;0.80;;;0.80;;
3667;SDS011;24099;47.102;15.440;2022-08-18T03:05:30;1.05;;;0.95;;
3667;SDS011;24099;47.102;15.440;2022-08-18T03:07:58;0.98;;;0.80;;
3667;SDS011;24099;47.102;15.440;2022-08-18T03:10:25;0.80;;;0.80;;
3667;SDS011;24099;47.102;15.440;2022-08-18T03:12:53;1.08;;;1.00;;
3667;SDS011;24099;47.102;15.440;2022-08-18T03:15:20;1.00;;;1.00;;
3667;SDS011;24099;47.102;15.440;2022-08-18T03:17:49;0.68;;;0.68;;
3667;SDS011;24099;47.102;15.440;2022-08-18T03:20:16;1.25;;;1.05;;
3667;SDS011;24099;47.102;15.440;2022-08-18T03:22:44;0.70;;;0.70;;
3667;SDS011;24099;47.102;15.440;2022-08-18T03:25:11;1.10;;;1.00;;
3667;SDS011;24099;47.102;15.440;2022-08-18T03:27:39;0.80;;;0.80;;
3667;SDS011;24099;47.102;15.440;2022-08-18T03:30:06;1.60;;;1.20;;
3667;SDS011;24099;47.102;15.440;2022-08-18T03:32:35;1.80;;;1.20;;
3667;SDS011;24099;47.102;15.440;2022-08-18T03:35:05;0.77;;;0.77;;
3667;SDS011;24099;47.102;15.440;2022-08-18T03:37:33;0.98;;;0.95;;
3667;SDS011;24099;47.102;15.440;2022-08-18T03:40:01;0.80;;;0.80;;
3667;SDS011;24099;47.102;15.440;2022-08-18T03:42:29;1.20;;;1.10;;
3667;SDS011;24099;47.102;15.440;2022-08-18T03:44:57;1.83;;;1.40;;
3667;SDS011;24099;47.102;15.440;2022-08-18T03:47:27;0.88;;;0.88;;
3667;SDS011;24099;47.102;15.440;2022-08-18T03:49:56;1.27;;;1.17;;
3667;SDS011;24099;47.102;15.440;2022-08-18T03:52:25;1.25;;;1.15;;
3667;SDS011;24099;47.102;15.440;2022-08-18T03:54:52;0.85;;;0.85;;
3667;SDS011;24099;47.102;15.440;2022-08-18T03:57:19;0.90;;;0.90;;
3667;SDS011;24099;47.102;15.440;2022-08-18T03:59:47;0.95;;;0.95;;
3667;SDS011;24099;47.102;15.440;2022-08-18T04:02:14;1.42;;;1.33;;
3667;SDS011;24099;47.102;15.440;2022-08-18T04:04:42;1.20;;;1.10;;
3667;SDS011;24099;47.102;15.440;2022-08-18T04:07:10;1.00;;;0.98;;
3667;SDS011;24099;47.102;15.440;2022-08-18T04:09:43;0.85;;;0.85;;
3667;SDS011;24099;47.102;15.440;2022-08-18T04:12:12;0.88;;;0.80;;
3667;SDS011;24099;47.102;15.440;2022-08-18T04:14:42;1.25;;;1.00;;
3667;SDS011;24099;47.102;15.440;2022-08-18T04:17:12;1.02;;;1.02;;
3667;SDS011;24099;47.102;15.440;2022-08-18T04:19:40;1.30;;;1.20;;
3667;SDS011;24099;47.102;15.440;2022-08-18T04:22:07;3.95;;;1.30;;
3667;SDS011;24099;47.102;15.440;2022-08-18T04:24:35;1.25;;;1.17;;
3667;SDS011;24099;47.102;15.440;2022-08-18T04:27:04;1.00;;;1.00;;
3667;SDS011;24099;47.102;15.440;2022-08-18T04:29:31;0.98;;;0.98;;
3667;SDS011;24099;47.102;15.440;2022-08-18T04:31:59;1.10;;;1.00;;
3667;SDS011;24099;47.102;15.440;2022-08-18T04:34:29;2.47;;;0.80;;
3667;SDS011;24099;47.102;15.440;2022-08-18T04:36:58;0.80;;;0.80;;
3667;SDS011;24099;47.102;15.440;2022-08-18T04:39:26;0.90;;;0.90;;
3667;SDS011;24099;47.102;15.440;2022-08-18T04:41:54;2.10;;;1.23;;
3667;SDS011;24099;47.102;15.440;2022-08-18T04:44:25;0.88;;;0.88;;
3667;SDS011;24099;47.102;15.440;2022-08-18T04:46:52;0.85;;;0.85;;
3667;SDS011;24099;47.102;15.440;2022-08-18T04:49:20;0.98;;;0.95;;
3667;SDS011;24099;47.102;15.440;2022-08-18T04:51:51;1.40;;;1.30;;
3667;SDS011;24099;47.102;15.440;2022-08-18T04:54:40;1.70;;;1.60;;
3667;SDS011;24099;47.102;15.440;2022-08-18T04:57:11;4.72;;;1.42;;
3667;SDS011;24099;47.102;15.440;2022-08-18T04:59:43;1.02;;;0.93;;
3667;SDS011;24099;47.102;15.440;2022-08-18T05:02:14;1.55;;;1.45;;
3667;SDS011;24099;47.102;15.440;2022-08-18T05:04:43;1.17;;;1.10;;
3667;SDS011;24099;47.102;15.440;2022-08-18T05:07:12;1.40;;;1.30;;
3667;SDS011;24099;47.102;15.440;2022-08-18T05:09:43;0.90;;;0.90;;
3667;SDS011;24099;47.102;15.440;2022-08-18T05:12:11;0.75;;;0.70;;
3667;SDS011;24099;47.102;15.440;2022-08-18T05:14:40;1.42;;;1.30;;
3667;SDS011;24099;47.102;15.440;2022-08-18T05:17:11;1.42;;;1.20;;
3667;SDS011;24099;47.102;15.440;2022-08-18T05:19:41;12.30;;;1.50;;
3667;SDS011;24099;47.102;15.440;2022-08-18T05:22:10;1.42;;;1.33;;
3667;SDS011;24099;47.102;15.440;2022-08-18T05:24:38;0.77;;;0.77;;
3667;SDS011;24099;47.102;15.440;2022-08-18T05:27:06;1.02;;;0.98;;
3667;SDS011;24099;47.102;15.440;2022-08-18T05:29:33;1.33;;;1.23;;
3667;SDS011;24099;47.102;15.440;2022-08-18T05:32:03;1.35;;;1.25;;
3667;SDS011;24099;47.102;15.440;2022-08-18T05:34:32;1.40;;;1.02;;
3667;SDS011;24099;47.102;15.440;2022-08-18T05:37:04;2.30;;;1.33;;
3667;SDS011;24099;47.102;15.440;2022-08-18T05:39:46;2.13;;;1.48;;
3667;SDS011;24099;47.102;15.440;2022-08-18T05:42:23;1.02;;;0.90;;
3667;SDS011;24099;47.102;15.440;2022-08-18T05:44:55;1.20;;;1.10;;
3667;SDS011;24099;47.102;15.440;2022-08-18T05:47:25;1.10;;;1.00;;
3667;SDS011;24099;47.102;15.440;2022-08-18T05:50:02;0.90;;;0.90;;
3667;SDS011;24099;47.102;15.440;2022-08-18T05:52:34;2.65;;;1.70;;
3667;SDS011;24099;47.102;15.440;2022-08-18T05:55:05;1.63;;;1.10;;
3667;SDS011;24099;47.102;15.440;2022-08-18T05:57:57;1.33;;;1.10;;
3667;SDS011;24099;47.102;15.440;2022-08-18T06:00:29;1.25;;;1.15;;
3667;SDS011;24099;47.102;15.440;2022-08-18T06:03:01;1.08;;;1.05;;
3667;SDS011;24099;47.102;15.440;2022-08-18T06:05:39;1.00;;;1.00;;
3667;SDS011;24099;47.102;15.440;2022-08-18T06:08:13;1.65;;;1.55;;
3667;SDS011;24099;47.102;15.440;2022-08-18T06:10:45;3.28;;;1.70;;
3667;SDS011;24099;47.102;15.440;2022-08-18T06:13:15;1.45;;;1.35;;
3667;SDS011;24099;47.102;15.440;2022-08-18T06:15:46;1.38;;;1.27;;
3667;SDS011;24099;47.102;15.440;2022-08-18T06:18:29;1.42;;;1.25;;
3667;SDS011;24099;47.102;15.440;2022-08-18T06:21:12;1.83;;;1.48;;
3667;SDS011;24099;47.102;15.440;2022-08-18T06:23:54;1.85;;;1.40;;
3667;SDS011;24099;47.102;15.440;2022-08-18T06:26:33;1.45;;;1.35;;
3667;SDS011;24099;47.102;15.440;2022-08-18T06:29:15;1.10;;;0.98;;
3667;SDS011;24099;47.102;15.440;2022-08-18T06:32:04;1.17;;;1.00;;
3667;SDS011;24099;47.102;15.440;2022-08-18T06:34:50;1.60;;;1.50;;
3667;SDS011;24099;47.102;15.440;2022-08-18T06:37:38;1.10;;;1.10;;
3667;SDS011;24099;47.102;15.440;2022-08-18T06:40:30;1.40;;;1.25;;
3667;SDS011;24099;47.102;15.440;2022-08-18T06:42:58;1.52;;;1.25;;
3667;SDS011;24099;47.102;15.440;2022-08-18T06:45:30;1.45;;;1.23;;
3667;SDS011;24099;47.102;15.440;2022-08-18T06:50:37;3.10;;;1.55;;
3667;SDS011;24099;47.102;15.440;2022-08-18T06:53:13;1.30;;;1.20;;
3667;SDS011;24099;47.102;15.440;2022-08-18T06:55:42;2.10;;;1.85;;
3667;SDS011;24099;47.102;15.440;2022-08-18T06:58:19;0.93;;;0.93;;
3667;SDS011;24099;47.102;15.440;2022-08-18T07:00:55;1.48;;;1.38;;
3667;SDS011;24099;47.102;15.440;2022-08-18T07:03:39;1.73;;;1.40;;
3667;SDS011;24099;47.102;15.440;2022-08-18T07:06:22;1.20;;;1.10;;
3667;SDS011;24099;47.102;15.440;2022-08-18T07:08:55;1.33;;;1.20;;
3667;SDS011;24099;47.102;15.440;2022-08-18T07:11:58;1.63;;;1.20;;
3667;SDS011;24099;47.102;15.440;2022-08-18T07:14:31;2.30;;;1.45;;
3667;SDS011;24099;47.102;15.440;2022-08-18T07:17:09;1.08;;;1.08;;
3667;SDS011;24099;47.102;15.440;2022-08-18T07:19:39;1.10;;;0.98;;
3667;SDS011;24099;47.102;15.440;2022-08-18T07:22:07;1.52;;;1.38;;
3667;SDS011;24099;47.102;15.440;2022-08-18T07:24:40;1.40;;;1.08;;
3667;SDS011;24099;47.102;15.440;2022-08-18T07:27:11;1.42;;;1.20;;
3667;SDS011;24099;47.102;15.440;2022-08-18T07:29:57;1.00;;;0.95;;
3667;SDS011;24099;47.102;15.440;2022-08-18T07:32:29;1.50;;;1.05;;
3667;SDS011;24099;47.102;15.440;2022-08-18T07:35:04;1.73;;;1.08;;
3667;SDS011;24099;47.102;15.440;2022-08-18T07:37:37;1.73;;;1.00;;
3667;SDS011;24099;47.102;15.440;2022-08-18T07:40:26;1.25;;;1.20;;
3667;SDS011;24099;47.102;15.440;2022-08-18T07:43:02;4.43;;;1.50;;
3667;SDS011;24099;47.102;15.440;2022-08-18T07:45:39;1.20;;;0.93;;
3667;SDS011;24099;47.102;15.440;2022-08-18T07:48:09;1.10;;;1.00;;
3667;SDS011;24099;47.102;15.440;2022-08-18T07:50:43;2.05;;;1.25;;
3667;SDS011;24099;47.102;15.440;2022-08-18T07:53:27;0.90;;;0.90;;
3667;SDS011;24099;47.102;15.440;2022-08-18T07:56:16;1.10;;;0.90;;
3667;SDS011;24099;47.102;15.440;2022-08-18T07:58:52;2.47;;;1.23;;
3667;SDS011;24099;47.102;15.440;2022-08-18T08:01:29;0.60;;;0.60;;
3667;SDS011;24099;47.102;15.440;2022-08-18T08:04:09;0.77;;;0.75;;
3667;SDS011;24099;47.102;15.440;2022-08-18T08:06:44;1.08;;;1.00;;
3667;SDS011;24099;47.102;15.440;2022-08-18T08:09:19;1.05;;;0.50;;
3667;SDS011;24099;47.102;15.440;2022-08-18T08:11:58;0.50;;;0.50;;
3667;SDS011;24099;47.102;15.440;2022-08-18T08:14:34;0.60;;;0.60;;
3667;SDS011;24099;47.102;15.440;2022-08-18T08:17:10;0.70;;;0.70;;
3667;SDS011;24099;47.102;15.440;2022-08-18T08:20:09;0.70;;;0.50;;
3667;SDS011;24099;47.102;15.440;2022-08-18T08:25:45;0.30;;;0.30;;
3667;SDS011;24099;47.102;15.440;2022-08-18T08:28:32;0.50;;;0.50;;
3667;SDS011;24099;47.102;15.440;2022-08-18T08:31:10;0.40;;;0.40;;
3667;SDS011;24099;47.102;15.440;2022-08-18T08:33:46;0.70;;;0.50;;
3667;SDS011;24099;47.102;15.440;2022-08-18T08:36:20;1.58;;;0.70;;
3667;SDS011;24099;47.102;15.440;2022-08-18T08:38:53;1.08;;;0.60;;
3667;SDS011;24099;47.102;15.440;2022-08-18T08:41:27;0.30;;;0.30;;
3667;SDS011;24099;47.102;15.440;2022-08-18T08:44:06;2.30;;;0.50;;
3667;SDS011;24099;47.102;15.440;2022-08-18T08:46:41;0.40;;;0.40;;
3667;SDS011;24099;47.102;15.440;2022-08-18T08:49:20;0.30;;;0.30;;
3667;SDS011;24099;47.102;15.440;2022-08-18T08:51:55;2.15;;;0.57;;
3667;SDS011;24099;47.102;15.440;2022-08-18T08:54:28;0.40;;;0.40;;
3667;SDS011;24099;47.102;15.440;2022-08-18T08:57:10;0.40;;;0.40;;
3667;SDS011;24099;47.102;15.440;2022-08-18T08:59:43;1.15;;;0.50;;
3667;SDS011;24099;47.102;15.440;2022-08-18T09:05:20;0.30;;;0.30;;
3667;SDS011;24099;47.102;15.440;2022-08-18T09:07:59;0.43;;;0.43;;
3667;SDS011;24099;47.102;15.440;2022-08-18T09:10:57;0.95;;;0.80;;
3667;SDS011;24099;47.102;15.440;2022-08-18T09:14:04;0.82;;;0.55;;
3667;SDS011;24099;47.102;15.440;2022-08-18T09:17:14;0.70;;;0.55;;
3667;SDS011;24099;47.102;15.440;2022-08-18T09:20:14;1.02;;;0.65;;
3667;SDS011;24099;47.102;15.440;2022-08-18T09:22:59;0.75;;;0.50;;
3667;SDS011;24099;47.102;15.440;2022-08-18T09:25:43;0.35;;;0.35;;
3667;SDS011;24099;47.102;15.440;2022-08-18T09:28:14;0.40;;;0.40;;
3667;SDS011;24099;47.102;15.440;2022-08-18T09:30:46;0.82;;;0.70;;
3667;SDS011;24099;47.102;15.440;2022-08-18T09:33:53;0.40;;;0.40;;
3667;SDS011;24099;47.102;15.440;2022-08-18T09:37:09;0.50;;;0.50;;
3667;SDS011;24099;47.102;15.440;2022-08-18T09:39:48;0.30;;;0.30;;
3667;SDS011;24099;47.102;15.440;2022-08-18T09:42:44;0.30;;;0.30;;
3667;SDS011;24099;47.102;15.440;2022-08-18T09:48:21;0.32;;;0.32;;
3667;SDS011;24099;47.102;15.440;2022-08-18T09:50:57;0.40;;;0.40;;
3667;SDS011;24099;47.102;15.440;2022-08-18T09:54:05;0.40;;;0.40;;
3667;SDS011;24099;47.102;15.440;2022-08-18T09:57:05;0.70;;;0.70;;
3667;SDS011;24099;47.102;15.440;2022-08-18T09:59:56;0.43;;;0.43;;
3667;SDS011;24099;47.102;15.440;2022-08-18T10:05:55;0.85;;;0.80;;
3667;SDS011;24099;47.102;15.440;2022-08-18T10:09:03;0.82;;;0.38;;
3667;SDS011;24099;47.102;15.440;2022-08-18T10:12:24;0.40;;;0.40;;
3667;SDS011;24099;47.102;15.440;2022-08-18T10:15:35;3.03;;;1.05;;
3667;SDS011;24099;47.102;15.440;2022-08-18T10:18:19;0.52;;;0.52;;
3667;SDS011;24099;47.102;15.440;2022-08-18T10:21:11;0.70;;;0.47;;
3667;SDS011;24099;47.102;15.440;2022-08-18T10:23:53;0.32;;;0.30;;
3667;SDS011;24099;47.102;15.440;2022-08-18T10:29:54;0.77;;;0.77;;
3667;SDS011;24099;47.102;15.440;2022-08-18T10:38:23;2.28;;;1.00;;
3667;SDS011;24099;47.102;15.440;2022-08-18T10:41:12;0.75;;;0.65;;
3667;SDS011;24099;47.102;15.440;2022-08-18T10:43:50;0.30;;;0.30;;
3667;SDS011;24099;47.102;15.440;2022-08-18T10:46:20;0.68;;;0.40;;
3667;SDS011;24099;47.102;15.440;2022-08-18T10:48:59;0.45;;;0.30;;
3667;SDS011;24099;47.102;15.440;2022-08-18T10:54:59;0.20;;;0.20;;
3667;SDS011;24099;47.102;15.440;2022-08-18T10:57:58;0.75;;;0.55;;
3667;SDS011;24099;47.102;15.440;2022-08-18T11:00:45;1.45;;;0.40;;
3667;SDS011;24099;47.102;15.440;2022-08-18T11:03:27;0.52;;;0.50;;
3667;SDS011;24099;47.102;15.440;2022-08-18T11:06:15;0.43;;;0.43;;
3667;SDS011;24099;47.102;15.440;2022-08-18T11:08:47;0.43;;;0.43;;
3667;SDS011;24099;47.102;15.440;2022-08-18T11:11:21;0.50;;;0.50;;
3667;SDS011;24099;47.102;15.440;2022-08-18T11:13:55;0.15;;;0.15;;
3667;SDS011;24099;47.102;15.440;2022-08-18T11:16:36;0.85;;;0.60;;
3667;SDS011;24099;47.102;15.440;2022-08-18T11:19:14;0.30;;;0.30;;
3667;SDS011;24099;47.102;15.440;2022-08-18T11:21:44;2.95;;;0.50;;
3667;SDS011;24099;47.102;15.440;2022-08-18T11:24:14;0.50;;;0.50;;
3667;SDS011;24099;47.102;15.440;2022-08-18T11:26:48;0.40;;;0.40;;
3667;SDS011;24099;47.102;15.440;2022-08-18T11:29:19;0.40;;;0.40;;
3667;SDS011;24099;47.102;15.440;2022-08-18T11:31:59;2.60;;;0.75;;
3667;SDS011;24099;47.102;15.440;2022-08-18T11:34:37;0.93;;;0.70;;
3667;SDS011;24099;47.102;15.440;2022-08-18T11:37:09;0.32;;;0.32;;
3667;SDS011;24099;47.102;15.440;2022-08-18T11:39:52;0.40;;;0.40;;
3667;SDS011;24099;47.102;15.440;2022-08-18T11:42:28;0.40;;;0.38;;
3667;SDS011;24099;47.102;15.440;2022-08-18T11:45:03;0.57;;;0.47;;
3667;SDS011;24099;47.102;15.440;2022-08-18T11:47:47;2.72;;;1.02;;
3667;SDS011;24099;47.102;15.440;2022-08-18T11:50:29;1.45;;;0.70;;
3667;SDS011;24099;47.102;15.440;2022-08-18T11:53:11;2.45;;;0.70;;
3667;SDS011;24099;47.102;15.440;2022-08-18T11:55:43;0.30;;;0.30;;
3667;SDS011;24099;47.102;15.440;2022-08-18T11:58:12;0.40;;;0.35;;
3667;SDS011;24099;47.102;15.440;2022-08-18T12:01:10;0.80;;;0.45;;
3667;SDS011;24099;47.102;15.440;2022-08-18T12:03:57;0.60;;;0.17;;
3667;SDS011;24099;47.102;15.440;2022-08-18T12:06:35;0.30;;;0.30;;
3667;SDS011;24099;47.102;15.440;2022-08-18T12:09:05;0.17;;;0.17;;
3667;SDS011;24099;47.102;15.440;2022-08-18T12:11:48;0.80;;;0.45;;
3667;SDS011;24099;47.102;15.440;2022-08-18T12:14:24;0.43;;;0.43;;
3667;SDS011;24099;47.102;15.440;2022-08-18T12:16:53;0.60;;;0.40;;
3667;SDS011;24099;47.102;15.440;2022-08-18T12:19:22;0.60;;;0.40;;
3667;SDS011;24099;47.102;15.440;2022-08-18T12:21:53;2.60;;;0.40;;
3667;SDS011;24099;47.102;15.440;2022-08-18T12:24:24;0.20;;;0.20;;
3667;SDS011;24099;47.102;15.440;2022-08-18T12:26:53;0.38;;;0.30;;
3667;SDS011;24099;47.102;15.440;2022-08-18T12:29:24;0.70;;;0.65;;
3667;SDS011;24099;47.102;15.440;2022-08-18T12:31:52;4.72;;;0.50;;
3667;SDS011;24099;47.102;15.440;2022-08-18T12:34:22;0.30;;;0.30;;
3667;SDS011;24099;47.102;15.440;2022-08-18T12:36:51;0.32;;;0.32;;
3667;SDS011;24099;47.102;15.440;2022-08-18T12:39:21;0.40;;;0.40;;
3667;SDS011;24099;47.102;15.440;2022-08-18T12:41:49;0.25;;;0.25;;
3667;SDS011;24099;47.102;15.440;2022-08-18T12:44:17;0.95;;;0.40;;
3667;SDS011;24099;47.102;15.440;2022-08-18T12:46:47;0.32;;;0.30;;
3667;SDS011;24099;47.102;15.440;2022-08-18T12:49:15;3.33;;;0.85;;
3667;SDS011;24099;47.102;15.440;2022-08-18T12:51:45;0.68;;;0.40;;
3667;SDS011;24099;47.102;15.440;2022-08-18T12:54:14;2.67;;;0.40;;
3667;SDS011;24099;47.102;15.440;2022-08-18T12:56:42;3.10;;;1.08;;
3667;SDS011;24099;47.102;15.440;2022-08-18T12:59:14;0.93;;;0.55;;
3667;SDS011;24099;47.102;15.440;2022-08-18T13:01:41;0.30;;;0.30;;
3667;SDS011;24099;47.102;15.440;2022-08-18T13:04:10;0.55;;;0.55;;
3667;SDS011;24099;47.102;15.440;2022-08-18T13:06:38;0.65;;;0.50;;
3667;SDS011;24099;47.102;15.440;2022-08-18T13:09:10;1.90;;;0.57;;
3667;SDS011;24099;47.102;15.440;2022-08-18T13:11:38;0.98;;;0.75;;
3667;SDS011;24099;47.102;15.440;2022-08-18T13:14:06;2.05;;;0.73;;
3667;SDS011;24099;47.102;15.440;2022-08-18T13:16:34;0.50;;;0.50;;
3667;SDS011;24099;47.102;15.440;2022-08-18T13:19:05;1.27;;;0.68;;
3667;SDS011;24099;47.102;15.440;2022-08-18T13:21:34;0.28;;;0.28;;
3667;SDS011;24099;47.102;15.440;2022-08-18T13:24:02;1.50;;;0.82;;
3667;SDS011;24099;47.102;15.440;2022-08-18T13:26:31;0.65;;;0.60;;
3667;SDS011;24099;47.102;15.440;2022-08-18T13:29:04;1.20;;;0.50;;
3667;SDS011;24099;47.102;15.440;2022-08-18T13:31:32;4.07;;;0.95;;
3667;SDS011;24099;47.102;15.440;2022-08-18T13:33:59;1.65;;;0.65;;
3667;SDS011;24099;47.102;15.440;2022-08-18T13:36:27;1.17;;;0.63;;
3667;SDS011;24099;47.102;15.440;2022-08-18T13:39:10;2.05;;;0.90;;
3667;SDS011;24099;47.102;15.440;2022-08-18T13:41:39;0.50;;;0.50;;
3667;SDS011;24099;47.102;15.440;2022-08-18T13:44:07;0.38;;;0.38;;
3667;SDS011;24099;47.102;15.440;2022-08-18T13:46:39;2.80;;;0.50;;
3667;SDS011;24099;47.102;15.440;2022-08-18T13:49:11;1.35;;;0.50;;
3667;SDS011;24099;47.102;15.440;2022-08-18T13:51:40;4.25;;;0.98;;
3667;SDS011;24099;47.102;15.440;2022-08-18T13:54:11;1.33;;;0.77;;
3667;SDS011;24099;47.102;15.440;2022-08-18T13:56:45;0.32;;;0.32;;
3667;SDS011;24099;47.102;15.440;2022-08-18T13:59:14;0.60;;;0.50;;
3667;SDS011;24099;47.102;15.440;2022-08-18T14:01:42;0.40;;;0.40;;
3667;SDS011;24099;47.102;15.440;2022-08-18T14:04:10;0.65;;;0.55;;
3667;SDS011;24099;47.102;15.440;2022-08-18T14:06:38;0.43;;;0.43;;
3667;SDS011;24099;47.102;15.440;2022-08-18T14:09:06;7.50;;;1.48;;
3667;SDS011;24099;47.102;15.440;2022-08-18T14:11:36;2.10;;;0.65;;
3667;SDS011;24099;47.102;15.440;2022-08-18T14:14:04;8.88;;;0.82;;
3667;SDS011;24099;47.102;15.440;2022-08-18T14:16:32;0.40;;;0.32;;
3667;SDS011;24099;47.102;15.440;2022-08-18T14:19:00;0.22;;;0.22;;
3667;SDS011;24099;47.102;15.440;2022-08-18T14:21:47;12.55;;;0.55;;
3667;SDS011;24099;47.102;15.440;2022-08-18T14:24:34;0.65;;;0.10;;
3667;SDS011;24099;47.102;15.440;2022-08-18T14:27:24;0.10;;;0.10;;
3667;SDS011;24099;47.102;15.440;2022-08-18T14:29:55;0.68;;;0.38;;
3667;SDS011;24099;47.102;15.440;2022-08-18T14:32:23;0.20;;;0.20;;
3667;SDS011;24099;47.102;15.440;2022-08-18T14:34:54;2.65;;;0.38;;
3667;SDS011;24099;47.102;15.440;2022-08-18T14:37:22;0.25;;;0.25;;
3667;SDS011;24099;47.102;15.440;2022-08-18T14:39:50;1.02;;;0.57;;
3667;SDS011;24099;47.102;15.440;2022-08-18T14:42:18;2.67;;;0.60;;
3667;SDS011;24099;47.102;15.440;2022-08-18T14:44:47;1.17;;;0.55;;
3667;SDS011;24099;47.102;15.440;2022-08-18T14:47:15;1.20;;;0.63;;
3667;SDS011;24099;47.102;15.440;2022-08-18T14:49:43;0.35;;;0.35;;
3667;SDS011;24099;47.102;15.440;2022-08-18T14:52:11;5.07;;;0.43;;
3667;SDS011;24099;47.102;15.440;2022-08-18T14:54:39;2.17;;;0.57;;
3667;SDS011;24099;47.102;15.440;2022-08-18T14:57:07;0.25;;;0.25;;
3667;SDS011;24099;47.102;15.440;2022-08-18T14:59:35;0.52;;;0.52;;
3667;SDS011;24099;47.102;15.440;2022-08-18T15:02:05;0.43;;;0.30;;
3667;SDS011;24099;47.102;15.440;2022-08-18T15:04:34;1.55;;;0.45;;
3667;SDS011;24099;47.102;15.440;2022-08-18T15:07:02;0.40;;;0.30;;
3667;SDS011;24099;47.102;15.440;2022-08-18T15:09:30;1.35;;;0.30;;
3667;SDS011;24099;47.102;15.440;2022-08-18T15:11:58;0.28;;;0.25;;
3667;SDS011;24099;47.102;15.440;2022-08-18T15:14:27;1.85;;;0.50;;
3667;SDS011;24099;47.102;15.440;2022-08-18T15:16:57;1.52;;;0.38;;
3667;SDS011;24099;47.102;15.440;2022-08-18T15:19:27;0.40;;;0.38;;
3667;SDS011;24099;47.102;15.440;2022-08-18T15:21:54;0.38;;;0.38;;
3667;SDS011;24099;47.102;15.440;2022-08-18T15:24:39;1.55;;;0.82;;
3667;SDS011;24099;47.102;15.440;2022-08-18T15:27:31;0.10;;;0.10;;
3667;SDS011;24099;47.102;15.440;2022-08-18T15:30:05;0.30;;;0.30;;
3667;SDS011;24099;47.102;15.440;2022-08-18T15:32:35;1.27;;;0.63;;
3667;SDS011;24099;47.102;15.440;2022-08-18T15:35:05;0.77;;;0.77;;
3667;SDS011;24099;47.102;15.440;2022-08-18T15:37:33;0.63;;;0.40;;
3667;SDS011;24099;47.102;15.440;2022-08-18T15:40:06;0.65;;;0.52;;
3667;SDS011;24099;47.102;15.440;2022-08-18T15:42:40;0.70;;;0.20;;
3667;SDS011;24099;47.102;15.440;2022-08-18T15:45:15;0.22;;;0.22;;
3667;SDS011;24099;47.102;15.440;2022-08-18T15:47:43;0.10;;;0.10;;
3667;SDS011;24099;47.102;15.440;2022-08-18T15:50:13;0.32;;;0.32;;
3667;SDS011;24099;47.102;15.440;2022-08-18T15:52:45;5.38;;;0.57;;
3667;SDS011;24099;47.102;15.440;2022-08-18T15:55:15;2.03;;;0.45;;
3667;SDS011;24099;47.102;15.440;2022-08-18T15:57:43;0.80;;;0.22;;
3667;SDS011;24099;47.102;15.440;2022-08-18T16:00:11;0.60;;;0.52;;